To NAV CANADA Home Page Login to a new session Search on AWWS site Disclaimer Vers la page française équivalente Tips FAQ What's new on the site To the Forecasts and Observations / NOTAM section To "File a Flight Plan" website Publications and other links Update of the User's profile FIC Telephone Numbers My Weather Data Folder Route Weather Data Regional Weather Data Local Weather Data To the Forecasts and Observations / NOTAM section
Request Generated 06/15/2019 at 22:46:20 UTC . Weather information available at that time is displayed.

METAR/TAF

TORONTO/OSHAWA EXECUTIVE AIRPORT/ON    (show WxCam)

SPECI CYOO 152238Z AUTO 22006KT 7SM OVC038 16/15 A2982 RMK SLP099 DENSITY ALT 700FT=
METAR CYOO 152200Z AUTO 21006KT 9SM -RA SCT026 OVC032 16/15 A2982 RMK SLP100 DENSITY ALT 700FT=
SPECI CYOO 152148Z AUTO 21007KT 8SM -RA OVC026 16/14 A2982 RMK SLP101 DENSITY ALT 800FT=
SPECI CYOO 152146Z AUTO 21006KT 8SM BKN026 OVC031 16/14 A2982 RMK SLP100 DENSITY ALT 800FT=
SPECI CYOO 152132Z AUTO 21007KT 9SM -RA BKN026 OVC031 16/14 A2982 RMK SLP099 DENSITY ALT 800FT=
SPECI CYOO 152120Z AUTO 21005KT 9SM BKN026 OVC033 16/14 A2981 RMK SLP098 DENSITY ALT 800FT=
SPECI CYOO 152113Z AUTO 22005KT 9SM BKN024 OVC035 16/14 A2981 RMK SLP097 DENSITY ALT 800FT=
METAR CYOO 152100Z AUTO 21005KT 9SM OVC026 16/13 A2981 RMK SLP097 DENSITY ALT 800FT=
METAR CYOO 152000Z AUTO 21009G16KT 9SM OVC026 17/14 A2981 RMK SLP096 DENSITY ALT 800FT=

TAF CYOO 151942Z 1520/1608 22010G20KT P6SM OVC025 TEMPO 1520/1524
P6SM -SHRA OVC015
BECMG 1522/1524 31008KT
FM160000 31008KT P6SM -RA OVC015 TEMPO 1600/1603 4SM -SHRA BR
BKN007 OVC012
FM160300 35005KT P6SM OVC025 TEMPO 1603/1605 4SM -RA BR BKN007
OVC020
FM160700 01006KT P6SM OVC050
RMK FCST BASED ON AUTO OBS. NXT FCST BY 160200Z=

TORONTO/BUTTONVILLE MUNICIPAL/ON    

LWIS CYKZ 152200Z AUTO 29007KT 240V310 18/15 A2983=
LWIS CYKZ 152100Z AUTO 26008KT 220V300 18/14 A2981=
LWIS CYKZ 152000Z AUTO 25008G18KT 220V300 19/14 A2981=

CYKZ - No TAF is issued for this station

PETERBOROUGH/ON    (show WxCam)

SPECI CYPQ 152229Z AUTO 23005KT 5SM -RA BR BKN017 OVC023 16/15 A2980 RMK SLP095 DENSITY ALT 1000FT=
SPECI CYPQ 152219Z AUTO 23006KT 170V240 7SM -RA BKN023 OVC028 16/15 A2981 RMK SLP096 DENSITY ALT 1000FT=
SPECI CYPQ 152203Z AUTO 21005G16KT 9SM -RA BKN025 OVC030 17/15 A2980 RMK SLP094 DENSITY ALT 1100FT=
METAR CYPQ 152200Z AUTO 21006G16KT 9SM OVC027 17/15 A2980 RMK SLP094 DENSITY ALT 1100FT=
METAR CYPQ 152100Z AUTO 20008KT 9SM BKN029 OVC040 17/14 A2979 RMK SLP090 DENSITY ALT 1100FT=
METAR CYPQ 152000Z AUTO 21009KT 9SM OVC031 17/13 A2979 RMK SLP091 DENSITY ALT 1100FT=

TAF CYPQ 151944Z 1520/1602 21010G20KT P6SM -SHRA OVC040 TEMPO
1520/1602 4SM -SHRA BR OVC020
RMK FCST BASED ON AUTO OBS. NXT FCST WILL BE ISSUED AT 160945Z=

TORONTO/BILLY BISHOP TORONTO CITY AIRPORT/ON    (show WxCam)

METAR CYTZ 152200Z AUTO 26006KT 9SM BKN027 OVC033 13/11 A2982 RMK SLP101=
METAR CYTZ 152100Z AUTO 21011KT 9SM OVC028 13/12 A2981 RMK SLP098=
METAR CYTZ 152000Z AUTO 22012KT 9SM BKN026 OVC034 14/12 A2981 RMK SLP097=

TAF CYTZ 151942Z 1520/1620 22012G22KT P6SM OVC025 TEMPO 1520/1524
P6SM -SHRA OVC015
FM160000 27008KT P6SM -RA OVC015 TEMPO 1600/1604 4SM -SHRA BR
BKN007 OVC012
FM160400 04006KT P6SM OVC025 TEMPO 1604/1607 4SM -RA BR BKN007
OVC020
FM160800 04008KT P6SM OVC030
FM161400 06010KT P6SM BKN030 BKN250
FM161600 07010KT P6SM BKN250
RMK FCST BASED ON AUTO OBS. NXT FCST BY 160200Z=

TORONTO/LESTER B. PEARSON INTL/ON    

SPECI CYYZ 152241Z 21006KT 5SM -RADZ BR SCT012 OVC019 17/16 A2983 RMK SF3SC5 SLP101 DENSITY ALT 1100FT=
METAR CYYZ 152200Z 21007KT 15SM -RA OVC023 18/15 A2982 RMK SC8 SLP100 DENSITY ALT 1200FT=
METAR CYYZ 152100Z 20014KT 15SM FEW019 OVC024 19/15 A2982 RMK CF2SC6 SLP098 DENSITY ALT 1300FT=
METAR CYYZ 152000Z 21010G21KT 15SM BKN020 OVC028 19/15 A2982 RMK CU5SC3 SLP098 DENSITY ALT 1300FT=

TAF CYYZ 152038Z 1521/1624 22010G20KT P6SM OVC025 TEMPO 1521/1601
P6SM -SHRA OVC015
BECMG 1523/1601 33010KT
FM160100 33010KT P6SM OVC015 TEMPO 1601/1604 4SM -SHRA BR BKN007
OVC012
FM160400 01006KT P6SM OVC025 TEMPO 1604/1606 4SM BR BKN007 OVC020
FM160800 02008KT P6SM OVC030
FM161400 06010KT P6SM BKN030 BKN250
FM161600 09010KT P6SM BKN250
FM162000 14008KT P6SM BKN180
RMK NXT FCST BY 160000Z=
Your time UTC time
Weather data provided by Environment Canada and NAV CANADA